sensor_id;sensor_type;location;lat;lon;timestamp;temperature;humidity
51655;DHT22;37732;53.106;7.030;2024-02-21T00:01:47;9.50;99.90
51655;DHT22;37732;53.106;7.030;2024-02-21T00:04:12;9.60;99.90
51655;DHT22;37732;53.106;7.030;2024-02-21T00:06:38;9.50;99.90
51655;DHT22;37732;53.106;7.030;2024-02-21T00:09:04;9.50;99.90
51655;DHT22;37732;53.106;7.030;2024-02-21T00:11:29;9.60;99.90
51655;DHT22;37732;53.106;7.030;2024-02-21T00:13:55;9.50;99.90
51655;DHT22;37732;53.106;7.030;2024-02-21T00:16:21;9.50;99.90
51655;DHT22;37732;53.106;7.030;2024-02-21T00:18:46;9.50;99.90
51655;DHT22;37732;53.106;7.030;2024-02-21T00:21:12;9.50;99.90
51655;DHT22;37732;53.106;7.030;2024-02-21T00:23:44;9.50;99.90
51655;DHT22;37732;53.106;7.030;2024-02-21T00:26:12;9.50;99.90
51655;DHT22;37732;53.106;7.030;2024-02-21T00:28:38;9.50;99.90
51655;DHT22;37732;53.106;7.030;2024-02-21T00:31:03;9.50;99.90
51655;DHT22;37732;53.106;7.030;2024-02-21T00:33:29;9.50;99.90
51655;DHT22;37732;53.106;7.030;2024-02-21T00:35:55;9.50;99.90
51655;DHT22;37732;53.106;7.030;2024-02-21T00:38:20;9.50;99.90
51655;DHT22;37732;53.106;7.030;2024-02-21T00:40:46;9.50;99.90
51655;DHT22;37732;53.106;7.030;2024-02-21T00:43:12;9.50;99.90
51655;DHT22;37732;53.106;7.030;2024-02-21T00:45:37;9.40;99.90
51655;DHT22;37732;53.106;7.030;2024-02-21T00:48:04;9.40;99.90
51655;DHT22;37732;53.106;7.030;2024-02-21T00:50:30;9.40;99.90
51655;DHT22;37732;53.106;7.030;2024-02-21T00:52:55;9.30;99.90
51655;DHT22;37732;53.106;7.030;2024-02-21T00:55:21;9.40;99.90
51655;DHT22;37732;53.106;7.030;2024-02-21T00:57:47;9.40;99.90
51655;DHT22;37732;53.106;7.030;2024-02-21T01:00:13;9.30;99.90
51655;DHT22;37732;53.106;7.030;2024-02-21T01:02:38;9.30;99.90
51655;DHT22;37732;53.106;7.030;2024-02-21T01:05:04;9.30;99.90
51655;DHT22;37732;53.106;7.030;2024-02-21T01:07:30;9.30;99.90
51655;DHT22;37732;53.106;7.030;2024-02-21T01:09:56;9.30;99.90
51655;DHT22;37732;53.106;7.030;2024-02-21T01:12:22;9.30;99.90
51655;DHT22;37732;53.106;7.030;2024-02-21T01:14:47;9.30;99.90
51655;DHT22;37732;53.106;7.030;2024-02-21T01:17:15;9.30;99.90
51655;DHT22;37732;53.106;7.030;2024-02-21T01:19:41;9.30;99.90
51655;DHT22;37732;53.106;7.030;2024-02-21T01:22:06;9.30;99.90
51655;DHT22;37732;53.106;7.030;2024-02-21T01:24:32;9.30;99.90
51655;DHT22;37732;53.106;7.030;2024-02-21T01:26:58;9.30;99.90
51655;DHT22;37732;53.106;7.030;2024-02-21T01:29:24;9.20;99.90
51655;DHT22;37732;53.106;7.030;2024-02-21T01:31:49;9.20;99.90
51655;DHT22;37732;53.106;7.030;2024-02-21T01:34:15;9.20;99.90
51655;DHT22;37732;53.106;7.030;2024-02-21T01:36:41;9.30;99.90
51655;DHT22;37732;53.106;7.030;2024-02-21T01:39:07;9.30;99.90
51655;DHT22;37732;53.106;7.030;2024-02-21T01:41:33;9.30;99.90
51655;DHT22;37732;53.106;7.030;2024-02-21T01:43:59;9.30;99.90
51655;DHT22;37732;53.106;7.030;2024-02-21T01:46:24;9.30;99.90
51655;DHT22;37732;53.106;7.030;2024-02-21T01:48:57;9.30;99.90
51655;DHT22;37732;53.106;7.030;2024-02-21T01:51:24;9.30;99.90
51655;DHT22;37732;53.106;7.030;2024-02-21T01:53:51;9.30;99.90
51655;DHT22;37732;53.106;7.030;2024-02-21T01:56:17;9.30;99.90
51655;DHT22;37732;53.106;7.030;2024-02-21T01:58:44;9.30;99.90
51655;DHT22;37732;53.106;7.030;2024-02-21T02:03:38;9.30;99.90
51655;DHT22;37732;53.106;7.030;2024-02-21T02:06:05;9.20;99.90
51655;DHT22;37732;53.106;7.030;2024-02-21T02:08:34;9.20;99.90
51655;DHT22;37732;53.106;7.030;2024-02-21T02:11:00;9.20;99.90
51655;DHT22;37732;53.106;7.030;2024-02-21T02:13:25;9.10;99.90
51655;DHT22;37732;53.106;7.030;2024-02-21T02:15:51;9.10;99.90
51655;DHT22;37732;53.106;7.030;2024-02-21T02:18:19;9.00;99.90
51655;DHT22;37732;53.106;7.030;2024-02-21T02:20:45;9.00;99.90
51655;DHT22;37732;53.106;7.030;2024-02-21T02:23:31;9.00;99.90
51655;DHT22;37732;53.106;7.030;2024-02-21T02:25:57;9.00;99.90
51655;DHT22;37732;53.106;7.030;2024-02-21T02:28:24;8.90;99.90
51655;DHT22;37732;53.106;7.030;2024-02-21T02:30:50;8.90;99.90
51655;DHT22;37732;53.106;7.030;2024-02-21T02:33:16;8.90;99.90
51655;DHT22;37732;53.106;7.030;2024-02-21T02:35:45;9.00;99.90
51655;DHT22;37732;53.106;7.030;2024-02-21T02:38:11;8.90;99.90
51655;DHT22;37732;53.106;7.030;2024-02-21T02:40:38;8.90;99.90
51655;DHT22;37732;53.106;7.030;2024-02-21T02:43:04;8.90;99.90
51655;DHT22;37732;53.106;7.030;2024-02-21T02:45:30;8.90;99.90
51655;DHT22;37732;53.106;7.030;2024-02-21T02:47:57;8.90;99.90
51655;DHT22;37732;53.106;7.030;2024-02-21T02:50:23;8.80;99.90
51655;DHT22;37732;53.106;7.030;2024-02-21T02:52:49;8.80;99.90
51655;DHT22;37732;53.106;7.030;2024-02-21T02:55:15;8.90;99.90
51655;DHT22;37732;53.106;7.030;2024-02-21T02:57:40;8.80;99.90
51655;DHT22;37732;53.106;7.030;2024-02-21T03:00:13;8.90;99.90
51655;DHT22;37732;53.106;7.030;2024-02-21T03:02:41;8.80;99.90
51655;DHT22;37732;53.106;7.030;2024-02-21T03:05:18;8.80;99.90
51655;DHT22;37732;53.106;7.030;2024-02-21T03:07:44;8.80;99.90
51655;DHT22;37732;53.106;7.030;2024-02-21T03:10:11;8.90;99.90
51655;DHT22;37732;53.106;7.030;2024-02-21T03:12:37;8.80;99.90
51655;DHT22;37732;53.106;7.030;2024-02-21T03:15:04;8.80;99.90
51655;DHT22;37732;53.106;7.030;2024-02-21T03:17:30;8.80;99.90
51655;DHT22;37732;53.106;7.030;2024-02-21T03:19:57;8.80;99.90
51655;DHT22;37732;53.106;7.030;2024-02-21T03:22:23;8.80;99.90
51655;DHT22;37732;53.106;7.030;2024-02-21T03:24:49;8.80;99.90
51655;DHT22;37732;53.106;7.030;2024-02-21T03:27:14;8.90;99.90
51655;DHT22;37732;53.106;7.030;2024-02-21T03:29:40;8.80;99.90
51655;DHT22;37732;53.106;7.030;2024-02-21T03:32:06;8.80;99.90
51655;DHT22;37732;53.106;7.030;2024-02-21T03:34:31;8.80;99.90
51655;DHT22;37732;53.106;7.030;2024-02-21T03:36:57;8.80;99.90
51655;DHT22;37732;53.106;7.030;2024-02-21T03:39:23;8.80;99.90
51655;DHT22;37732;53.106;7.030;2024-02-21T03:41:48;7.90;99.90
51655;DHT22;37732;53.106;7.030;2024-02-21T03:44:14;8.80;99.90
51655;DHT22;37732;53.106;7.030;2024-02-21T03:46:40;8.80;99.90
51655;DHT22;37732;53.106;7.030;2024-02-21T03:49:05;8.80;99.90
51655;DHT22;37732;53.106;7.030;2024-02-21T03:51:31;8.80;99.90
51655;DHT22;37732;53.106;7.030;2024-02-21T03:53:56;8.80;99.90
51655;DHT22;37732;53.106;7.030;2024-02-21T03:56:22;8.80;99.90
51655;DHT22;37732;53.106;7.030;2024-02-21T03:58:48;8.80;99.90
51655;DHT22;37732;53.106;7.030;2024-02-21T04:01:15;8.80;99.90
51655;DHT22;37732;53.106;7.030;2024-02-21T04:03:43;8.80;99.90
51655;DHT22;37732;53.106;7.030;2024-02-21T04:06:09;8.80;99.90
51655;DHT22;37732;53.106;7.030;2024-02-21T04:08:35;8.90;99.90
51655;DHT22;37732;53.106;7.030;2024-02-21T04:11:00;8.80;99.90
51655;DHT22;37732;53.106;7.030;2024-02-21T04:13:26;8.80;99.90
51655;DHT22;37732;53.106;7.030;2024-02-21T04:15:52;8.80;99.90
51655;DHT22;37732;53.106;7.030;2024-02-21T04:18:18;8.80;99.90
51655;DHT22;37732;53.106;7.030;2024-02-21T04:20:43;8.80;99.90
51655;DHT22;37732;53.106;7.030;2024-02-21T04:23:09;8.80;99.90
51655;DHT22;37732;53.106;7.030;2024-02-21T04:25:35;8.80;99.90
51655;DHT22;37732;53.106;7.030;2024-02-21T04:28:01;8.80;99.90
51655;DHT22;37732;53.106;7.030;2024-02-21T04:30:26;8.20;99.90
51655;DHT22;37732;53.106;7.030;2024-02-21T04:32:52;8.80;99.90
51655;DHT22;37732;53.106;7.030;2024-02-21T04:35:18;8.80;99.90
51655;DHT22;37732;53.106;7.030;2024-02-21T04:37:43;8.80;99.90
51655;DHT22;37732;53.106;7.030;2024-02-21T04:40:10;8.80;99.90
51655;DHT22;37732;53.106;7.030;2024-02-21T04:42:36;8.80;99.90
51655;DHT22;37732;53.106;7.030;2024-02-21T04:45:02;8.80;99.90
51655;DHT22;37732;53.106;7.030;2024-02-21T04:47:28;8.80;99.90
51655;DHT22;37732;53.106;7.030;2024-02-21T04:49:54;8.80;99.90
51655;DHT22;37732;53.106;7.030;2024-02-21T04:52:19;8.80;99.90
51655;DHT22;37732;53.106;7.030;2024-02-21T04:54:45;8.80;99.90
51655;DHT22;37732;53.106;7.030;2024-02-21T04:57:11;8.80;99.90
51655;DHT22;37732;53.106;7.030;2024-02-21T04:59:36;8.90;99.90
51655;DHT22;37732;53.106;7.030;2024-02-21T05:02:02;8.80;99.90
51655;DHT22;37732;53.106;7.030;2024-02-21T05:04:28;8.80;99.90
51655;DHT22;37732;53.106;7.030;2024-02-21T05:06:54;8.80;99.90
51655;DHT22;37732;53.106;7.030;2024-02-21T05:09:20;8.80;99.90
51655;DHT22;37732;53.106;7.030;2024-02-21T05:11:46;8.80;99.90
51655;DHT22;37732;53.106;7.030;2024-02-21T05:14:11;8.80;99.90
51655;DHT22;37732;53.106;7.030;2024-02-21T05:16:38;8.80;99.90
51655;DHT22;37732;53.106;7.030;2024-02-21T05:19:05;8.80;99.90
51655;DHT22;37732;53.106;7.030;2024-02-21T05:21:30;8.80;99.90
51655;DHT22;37732;53.106;7.030;2024-02-21T05:23:56;8.70;99.90
51655;DHT22;37732;53.106;7.030;2024-02-21T05:26:23;8.80;99.90
51655;DHT22;37732;53.106;7.030;2024-02-21T05:28:49;8.80;99.90
51655;DHT22;37732;53.106;7.030;2024-02-21T05:31:16;8.80;99.90
51655;DHT22;37732;53.106;7.030;2024-02-21T05:33:43;8.70;99.90
51655;DHT22;37732;53.106;7.030;2024-02-21T05:36:09;9.40;99.90
51655;DHT22;37732;53.106;7.030;2024-02-21T05:38:35;8.70;99.90
51655;DHT22;37732;53.106;7.030;2024-02-21T05:41:01;8.70;99.90
51655;DHT22;37732;53.106;7.030;2024-02-21T05:43:27;8.80;99.90
51655;DHT22;37732;53.106;7.030;2024-02-21T05:45:52;8.70;99.90
51655;DHT22;37732;53.106;7.030;2024-02-21T05:48:18;8.70;99.90
51655;DHT22;37732;53.106;7.030;2024-02-21T05:50:43;8.90;99.90
51655;DHT22;37732;53.106;7.030;2024-02-21T05:53:09;8.80;99.90
51655;DHT22;37732;53.106;7.030;2024-02-21T05:55:36;8.80;99.90
51655;DHT22;37732;53.106;7.030;2024-02-21T05:58:02;8.70;99.90
51655;DHT22;37732;53.106;7.030;2024-02-21T06:00:28;8.80;99.90
51655;DHT22;37732;53.106;7.030;2024-02-21T06:02:55;8.80;99.90
51655;DHT22;37732;53.106;7.030;2024-02-21T06:05:20;8.70;99.90
51655;DHT22;37732;53.106;7.030;2024-02-21T06:07:46;8.80;99.90
51655;DHT22;37732;53.106;7.030;2024-02-21T06:10:12;8.80;99.90
51655;DHT22;37732;53.106;7.030;2024-02-21T06:12:37;8.80;99.90
51655;DHT22;37732;53.106;7.030;2024-02-21T06:15:03;8.70;99.90
51655;DHT22;37732;53.106;7.030;2024-02-21T06:17:29;8.70;99.90
51655;DHT22;37732;53.106;7.030;2024-02-21T06:19:55;8.70;99.90
51655;DHT22;37732;53.106;7.030;2024-02-21T06:22:20;8.80;99.90
51655;DHT22;37732;53.106;7.030;2024-02-21T06:24:46;8.80;99.90
51655;DHT22;37732;53.106;7.030;2024-02-21T06:27:12;8.70;99.90
51655;DHT22;37732;53.106;7.030;2024-02-21T06:29:40;8.80;99.90
51655;DHT22;37732;53.106;7.030;2024-02-21T06:32:05;8.70;99.90
51655;DHT22;37732;53.106;7.030;2024-02-21T06:34:31;8.70;99.90
51655;DHT22;37732;53.106;7.030;2024-02-21T06:36:57;8.80;99.90
51655;DHT22;37732;53.106;7.030;2024-02-21T06:39:23;8.70;99.90
51655;DHT22;37732;53.106;7.030;2024-02-21T06:41:49;8.70;99.90
51655;DHT22;37732;53.106;7.030;2024-02-21T06:44:17;8.70;99.90
51655;DHT22;37732;53.106;7.030;2024-02-21T06:46:43;8.70;99.90
51655;DHT22;37732;53.106;7.030;2024-02-21T06:49:08;8.70;99.90
51655;DHT22;37732;53.106;7.030;2024-02-21T06:51:34;8.70;99.90
51655;DHT22;37732;53.106;7.030;2024-02-21T06:54:00;8.70;99.90
51655;DHT22;37732;53.106;7.030;2024-02-21T06:56:26;8.70;99.90
51655;DHT22;37732;53.106;7.030;2024-02-21T06:58:55;8.70;99.90
51655;DHT22;37732;53.106;7.030;2024-02-21T07:01:21;8.70;99.90
51655;DHT22;37732;53.106;7.030;2024-02-21T07:03:47;8.70;99.90
51655;DHT22;37732;53.106;7.030;2024-02-21T07:06:13;9.30;99.90
51655;DHT22;37732;53.106;7.030;2024-02-21T07:08:38;8.70;99.90
51655;DHT22;37732;53.106;7.030;2024-02-21T07:11:05;8.70;99.90
51655;DHT22;37732;53.106;7.030;2024-02-21T07:13:31;8.70;99.90
51655;DHT22;37732;53.106;7.030;2024-02-21T07:15:57;8.70;99.90
51655;DHT22;37732;53.106;7.030;2024-02-21T07:18:23;8.70;99.90
51655;DHT22;37732;53.106;7.030;2024-02-21T07:20:51;8.70;99.90
51655;DHT22;37732;53.106;7.030;2024-02-21T07:23:17;8.70;99.90
51655;DHT22;37732;53.106;7.030;2024-02-21T07:25:42;8.70;99.90
51655;DHT22;37732;53.106;7.030;2024-02-21T07:28:08;8.80;99.90
51655;DHT22;37732;53.106;7.030;2024-02-21T07:30:34;8.70;99.90
51655;DHT22;37732;53.106;7.030;2024-02-21T07:32:59;8.70;99.90
51655;DHT22;37732;53.106;7.030;2024-02-21T07:35:25;8.70;99.90
51655;DHT22;37732;53.106;7.030;2024-02-21T07:37:51;8.70;99.90
51655;DHT22;37732;53.106;7.030;2024-02-21T07:40:17;8.70;99.90
51655;DHT22;37732;53.106;7.030;2024-02-21T07:42:43;8.70;99.90
51655;DHT22;37732;53.106;7.030;2024-02-21T07:45:09;8.80;99.90
51655;DHT22;37732;53.106;7.030;2024-02-21T07:47:36;8.80;99.90
51655;DHT22;37732;53.106;7.030;2024-02-21T07:50:05;8.80;99.90
51655;DHT22;37732;53.106;7.030;2024-02-21T07:52:31;8.80;99.90
51655;DHT22;37732;53.106;7.030;2024-02-21T07:54:57;8.80;99.90
51655;DHT22;37732;53.106;7.030;2024-02-21T07:57:23;8.80;99.90
51655;DHT22;37732;53.106;7.030;2024-02-21T07:59:48;8.80;99.90
51655;DHT22;37732;53.106;7.030;2024-02-21T08:02:14;8.80;99.90
51655;DHT22;37732;53.106;7.030;2024-02-21T08:04:41;8.80;99.90
51655;DHT22;37732;53.106;7.030;2024-02-21T08:07:06;8.90;99.90
51655;DHT22;37732;53.106;7.030;2024-02-21T08:09:32;8.90;99.90
51655;DHT22;37732;53.106;7.030;2024-02-21T08:11:58;8.90;99.90
51655;DHT22;37732;53.106;7.030;2024-02-21T08:14:24;8.90;99.90
51655;DHT22;37732;53.106;7.030;2024-02-21T08:16:51;9.00;99.90
51655;DHT22;37732;53.106;7.030;2024-02-21T08:19:19;8.90;99.90
51655;DHT22;37732;53.106;7.030;2024-02-21T08:21:45;9.00;99.90
51655;DHT22;37732;53.106;7.030;2024-02-21T08:24:13;9.00;99.90
51655;DHT22;37732;53.106;7.030;2024-02-21T08:26:44;8.90;99.90
51655;DHT22;37732;53.106;7.030;2024-02-21T08:29:13;8.90;99.90
51655;DHT22;37732;53.106;7.030;2024-02-21T08:31:38;8.90;99.90
51655;DHT22;37732;53.106;7.030;2024-02-21T08:34:04;8.90;99.90
51655;DHT22;37732;53.106;7.030;2024-02-21T08:36:34;9.00;99.90
51655;DHT22;37732;53.106;7.030;2024-02-21T08:39:00;8.90;99.90
51655;DHT22;37732;53.106;7.030;2024-02-21T08:41:26;8.90;99.90
51655;DHT22;37732;53.106;7.030;2024-02-21T08:43:53;8.90;99.90
51655;DHT22;37732;53.106;7.030;2024-02-21T08:46:25;8.80;99.90
51655;DHT22;37732;53.106;7.030;2024-02-21T08:48:52;8.80;99.90
51655;DHT22;37732;53.106;7.030;2024-02-21T08:51:18;8.80;99.90
51655;DHT22;37732;53.106;7.030;2024-02-21T08:53:45;8.90;99.90
51655;DHT22;37732;53.106;7.030;2024-02-21T08:56:11;8.80;99.90
51655;DHT22;37732;53.106;7.030;2024-02-21T08:58:37;8.80;99.90
51655;DHT22;37732;53.106;7.030;2024-02-21T09:01:06;8.80;99.90
51655;DHT22;37732;53.106;7.030;2024-02-21T09:03:38;8.80;99.90
51655;DHT22;37732;53.106;7.030;2024-02-21T09:06:07;8.80;99.90
51655;DHT22;37732;53.106;7.030;2024-02-21T09:08:35;8.80;99.90
51655;DHT22;37732;53.106;7.030;2024-02-21T09:11:01;8.80;99.90
51655;DHT22;37732;53.106;7.030;2024-02-21T09:13:27;8.80;99.90
51655;DHT22;37732;53.106;7.030;2024-02-21T09:15:53;8.90;99.90
51655;DHT22;37732;53.106;7.030;2024-02-21T09:18:19;8.80;99.90
51655;DHT22;37732;53.106;7.030;2024-02-21T09:20:45;8.80;99.90
51655;DHT22;37732;53.106;7.030;2024-02-21T09:23:11;8.90;99.90
51655;DHT22;37732;53.106;7.030;2024-02-21T09:25:37;8.90;99.90
51655;DHT22;37732;53.106;7.030;2024-02-21T09:28:03;8.80;99.90
51655;DHT22;37732;53.106;7.030;2024-02-21T09:30:29;8.80;99.90
51655;DHT22;37732;53.106;7.030;2024-02-21T09:32:55;8.80;99.90
51655;DHT22;37732;53.106;7.030;2024-02-21T09:35:24;8.80;99.90
51655;DHT22;37732;53.106;7.030;2024-02-21T09:37:52;8.80;99.90
51655;DHT22;37732;53.106;7.030;2024-02-21T09:40:18;8.80;99.90
51655;DHT22;37732;53.106;7.030;2024-02-21T09:42:44;8.80;99.90
51655;DHT22;37732;53.106;7.030;2024-02-21T09:45:20;8.80;99.90
51655;DHT22;37732;53.106;7.030;2024-02-21T09:50:21;8.80;99.90
51655;DHT22;37732;53.106;7.030;2024-02-21T09:52:48;8.80;99.90
51655;DHT22;37732;53.106;7.030;2024-02-21T09:55:15;8.80;99.90
51655;DHT22;37732;53.106;7.030;2024-02-21T09:57:41;8.80;99.90
51655;DHT22;37732;53.106;7.030;2024-02-21T10:00:09;8.90;99.90
51655;DHT22;37732;53.106;7.030;2024-02-21T10:02:35;8.90;99.90
51655;DHT22;37732;53.106;7.030;2024-02-21T10:05:02;8.90;99.90
51655;DHT22;37732;53.106;7.030;2024-02-21T10:07:30;8.90;99.90
51655;DHT22;37732;53.106;7.030;2024-02-21T10:10:02;9.00;99.90
51655;DHT22;37732;53.106;7.030;2024-02-21T10:12:28;9.00;99.90
51655;DHT22;37732;53.106;7.030;2024-02-21T10:15:01;9.00;99.90
51655;DHT22;37732;53.106;7.030;2024-02-21T10:17:27;9.00;99.90
51655;DHT22;37732;53.106;7.030;2024-02-21T10:19:53;9.00;99.90
51655;DHT22;37732;53.106;7.030;2024-02-21T10:22:18;9.10;99.90
51655;DHT22;37732;53.106;7.030;2024-02-21T10:24:46;9.10;99.90
51655;DHT22;37732;53.106;7.030;2024-02-21T10:27:12;9.20;99.90
51655;DHT22;37732;53.106;7.030;2024-02-21T10:29:38;9.20;99.90
51655;DHT22;37732;53.106;7.030;2024-02-21T10:32:11;9.20;99.90
51655;DHT22;37732;53.106;7.030;2024-02-21T10:34:38;9.30;99.90
51655;DHT22;37732;53.106;7.030;2024-02-21T10:37:06;9.30;99.90
51655;DHT22;37732;53.106;7.030;2024-02-21T10:39:33;9.30;99.90
51655;DHT22;37732;53.106;7.030;2024-02-21T10:42:00;9.40;99.90
51655;DHT22;37732;53.106;7.030;2024-02-21T10:44:30;9.40;99.90
51655;DHT22;37732;53.106;7.030;2024-02-21T10:46:59;9.40;99.90
51655;DHT22;37732;53.106;7.030;2024-02-21T10:49:26;9.50;99.90
51655;DHT22;37732;53.106;7.030;2024-02-21T10:52:15;9.40;99.90
51655;DHT22;37732;53.106;7.030;2024-02-21T10:54:56;9.50;99.90
51655;DHT22;37732;53.106;7.030;2024-02-21T10:57:22;9.50;99.90
51655;DHT22;37732;53.106;7.030;2024-02-21T10:59:49;9.50;99.90
51655;DHT22;37732;53.106;7.030;2024-02-21T11:02:16;9.50;99.90
51655;DHT22;37732;53.106;7.030;2024-02-21T11:04:42;9.60;99.90
51655;DHT22;37732;53.106;7.030;2024-02-21T11:07:08;9.60;99.90
51655;DHT22;37732;53.106;7.030;2024-02-21T11:09:34;9.60;99.90
51655;DHT22;37732;53.106;7.030;2024-02-21T11:12:03;9.60;99.90
51655;DHT22;37732;53.106;7.030;2024-02-21T11:14:29;9.70;99.90
51655;DHT22;37732;53.106;7.030;2024-02-21T11:16:58;9.70;99.90
51655;DHT22;37732;53.106;7.030;2024-02-21T11:19:28;9.70;99.90
51655;DHT22;37732;53.106;7.030;2024-02-21T11:21:55;9.70;99.90
51655;DHT22;37732;53.106;7.030;2024-02-21T11:24:40;9.80;99.90
51655;DHT22;37732;53.106;7.030;2024-02-21T11:29:55;9.80;99.90
51655;DHT22;37732;53.106;7.030;2024-02-21T11:32:22;9.90;99.90
51655;DHT22;37732;53.106;7.030;2024-02-21T11:35:01;9.90;99.90
51655;DHT22;37732;53.106;7.030;2024-02-21T11:37:29;9.90;99.90
51655;DHT22;37732;53.106;7.030;2024-02-21T11:39:55;9.80;99.90
51655;DHT22;37732;53.106;7.030;2024-02-21T11:42:21;9.80;99.90
51655;DHT22;37732;53.106;7.030;2024-02-21T11:44:48;9.70;99.90
51655;DHT22;37732;53.106;7.030;2024-02-21T11:47:14;9.80;99.90
51655;DHT22;37732;53.106;7.030;2024-02-21T11:49:48;9.80;99.90
51655;DHT22;37732;53.106;7.030;2024-02-21T11:52:15;9.80;99.90
51655;DHT22;37732;53.106;7.030;2024-02-21T11:54:44;9.80;99.90
51655;DHT22;37732;53.106;7.030;2024-02-21T11:57:10;9.80;99.90
51655;DHT22;37732;53.106;7.030;2024-02-21T11:59:40;9.80;99.90
51655;DHT22;37732;53.106;7.030;2024-02-21T12:02:06;9.80;99.90
51655;DHT22;37732;53.106;7.030;2024-02-21T12:04:33;9.80;99.90
51655;DHT22;37732;53.106;7.030;2024-02-21T12:06:59;9.80;99.90
51655;DHT22;37732;53.106;7.030;2024-02-21T12:09:25;9.80;99.90
51655;DHT22;37732;53.106;7.030;2024-02-21T12:11:58;9.80;99.90
51655;DHT22;37732;53.106;7.030;2024-02-21T12:14:25;9.80;99.90
51655;DHT22;37732;53.106;7.030;2024-02-21T12:16:50;9.80;99.90
51655;DHT22;37732;53.106;7.030;2024-02-21T12:19:17;9.80;99.90
51655;DHT22;37732;53.106;7.030;2024-02-21T12:21:43;9.80;99.90
51655;DHT22;37732;53.106;7.030;2024-02-21T12:24:14;9.80;99.90
51655;DHT22;37732;53.106;7.030;2024-02-21T12:26:41;9.80;99.90
51655;DHT22;37732;53.106;7.030;2024-02-21T12:29:07;9.80;99.90
51655;DHT22;37732;53.106;7.030;2024-02-21T12:31:36;9.80;99.90
51655;DHT22;37732;53.106;7.030;2024-02-21T12:34:02;9.80;99.90
51655;DHT22;37732;53.106;7.030;2024-02-21T12:36:28;9.80;99.90
51655;DHT22;37732;53.106;7.030;2024-02-21T12:38:53;9.80;99.90
51655;DHT22;37732;53.106;7.030;2024-02-21T12:41:20;9.80;99.90
51655;DHT22;37732;53.106;7.030;2024-02-21T12:43:45;9.90;99.90
51655;DHT22;37732;53.106;7.030;2024-02-21T12:46:11;9.90;99.90
51655;DHT22;37732;53.106;7.030;2024-02-21T12:48:37;9.90;99.90
51655;DHT22;37732;53.106;7.030;2024-02-21T12:51:02;9.90;99.90
51655;DHT22;37732;53.106;7.030;2024-02-21T12:53:28;9.90;99.90
51655;DHT22;37732;53.106;7.030;2024-02-21T12:55:55;9.90;99.90
51655;DHT22;37732;53.106;7.030;2024-02-21T12:58:22;9.90;99.90
51655;DHT22;37732;53.106;7.030;2024-02-21T13:00:48;9.90;99.90
51655;DHT22;37732;53.106;7.030;2024-02-21T13:03:14;10.00;99.90
51655;DHT22;37732;53.106;7.030;2024-02-21T13:05:40;10.10;99.90
51655;DHT22;37732;53.106;7.030;2024-02-21T13:08:06;10.00;99.90
51655;DHT22;37732;53.106;7.030;2024-02-21T13:10:32;10.00;99.90
51655;DHT22;37732;53.106;7.030;2024-02-21T13:13:02;9.90;99.90
51655;DHT22;37732;53.106;7.030;2024-02-21T13:15:28;9.90;99.90
51655;DHT22;37732;53.106;7.030;2024-02-21T13:17:55;9.90;99.90
51655;DHT22;37732;53.106;7.030;2024-02-21T13:20:21;9.90;99.90
51655;DHT22;37732;53.106;7.030;2024-02-21T13:22:47;9.90;99.90
51655;DHT22;37732;53.106;7.030;2024-02-21T13:25:12;9.90;99.90
51655;DHT22;37732;53.106;7.030;2024-02-21T13:27:43;9.80;99.90
51655;DHT22;37732;53.106;7.030;2024-02-21T13:30:10;9.80;99.90
51655;DHT22;37732;53.106;7.030;2024-02-21T13:32:36;9.80;99.90
51655;DHT22;37732;53.106;7.030;2024-02-21T13:35:02;9.90;99.90
51655;DHT22;37732;53.106;7.030;2024-02-21T13:37:28;9.80;99.90
51655;DHT22;37732;53.106;7.030;2024-02-21T13:39:54;9.90;99.90
51655;DHT22;37732;53.106;7.030;2024-02-21T13:42:21;9.90;99.90
51655;DHT22;37732;53.106;7.030;2024-02-21T13:44:47;9.90;99.90
51655;DHT22;37732;53.106;7.030;2024-02-21T13:47:14;9.90;99.90
51655;DHT22;37732;53.106;7.030;2024-02-21T13:49:41;10.00;99.90
51655;DHT22;37732;53.106;7.030;2024-02-21T13:52:07;10.00;99.90
51655;DHT22;37732;53.106;7.030;2024-02-21T13:54:35;10.00;99.90
51655;DHT22;37732;53.106;7.030;2024-02-21T13:57:00;10.00;99.90
51655;DHT22;37732;53.106;7.030;2024-02-21T13:59:28;10.00;99.90
51655;DHT22;37732;53.106;7.030;2024-02-21T14:01:54;10.10;99.90
51655;DHT22;37732;53.106;7.030;2024-02-21T14:04:19;10.00;99.90
51655;DHT22;37732;53.106;7.030;2024-02-21T14:06:45;10.00;99.90
51655;DHT22;37732;53.106;7.030;2024-02-21T14:09:12;10.00;99.90
51655;DHT22;37732;53.106;7.030;2024-02-21T14:11:37;10.20;99.90
51655;DHT22;37732;53.106;7.030;2024-02-21T14:14:04;9.90;99.90
51655;DHT22;37732;53.106;7.030;2024-02-21T14:16:30;9.90;99.90
51655;DHT22;37732;53.106;7.030;2024-02-21T14:18:56;9.90;99.90
51655;DHT22;37732;53.106;7.030;2024-02-21T14:21:22;9.90;99.90
51655;DHT22;37732;53.106;7.030;2024-02-21T14:23:48;9.90;99.90
51655;DHT22;37732;53.106;7.030;2024-02-21T14:26:13;9.90;99.90
51655;DHT22;37732;53.106;7.030;2024-02-21T14:28:42;9.80;99.90
51655;DHT22;37732;53.106;7.030;2024-02-21T14:31:07;9.90;99.90
51655;DHT22;37732;53.106;7.030;2024-02-21T14:33:37;9.80;99.90
51655;DHT22;37732;53.106;7.030;2024-02-21T14:36:02;9.80;99.90
51655;DHT22;37732;53.106;7.030;2024-02-21T14:38:28;9.80;99.90
51655;DHT22;37732;53.106;7.030;2024-02-21T14:40:54;9.80;99.90
51655;DHT22;37732;53.106;7.030;2024-02-21T14:43:20;9.80;99.90
51655;DHT22;37732;53.106;7.030;2024-02-21T14:45:49;9.70;99.90
51655;DHT22;37732;53.106;7.030;2024-02-21T14:48:15;9.50;99.90
51655;DHT22;37732;53.106;7.030;2024-02-21T14:50:41;9.70;99.90
51655;DHT22;37732;53.106;7.030;2024-02-21T14:53:10;9.60;99.90
51655;DHT22;37732;53.106;7.030;2024-02-21T14:55:36;9.70;99.90
51655;DHT22;37732;53.106;7.030;2024-02-21T14:58:05;9.60;99.90
51655;DHT22;37732;53.106;7.030;2024-02-21T15:00:32;9.60;99.90
51655;DHT22;37732;53.106;7.030;2024-02-21T15:02:58;9.60;99.90
51655;DHT22;37732;53.106;7.030;2024-02-21T15:05:24;9.60;99.90
51655;DHT22;37732;53.106;7.030;2024-02-21T15:07:51;9.60;99.90
51655;DHT22;37732;53.106;7.030;2024-02-21T15:10:17;9.50;99.90
51655;DHT22;37732;53.106;7.030;2024-02-21T15:12:46;9.50;99.90
51655;DHT22;37732;53.106;7.030;2024-02-21T15:15:12;9.50;99.90
51655;DHT22;37732;53.106;7.030;2024-02-21T15:17:37;9.50;99.90
51655;DHT22;37732;53.106;7.030;2024-02-21T15:20:04;9.50;99.90
51655;DHT22;37732;53.106;7.030;2024-02-21T15:22:33;9.50;99.90
51655;DHT22;37732;53.106;7.030;2024-02-21T15:24:59;9.50;99.90
51655;DHT22;37732;53.106;7.030;2024-02-21T15:27:46;9.50;99.90
51655;DHT22;37732;53.106;7.030;2024-02-21T15:30:12;9.50;99.90
51655;DHT22;37732;53.106;7.030;2024-02-21T15:32:39;9.50;99.90
51655;DHT22;37732;53.106;7.030;2024-02-21T15:35:06;9.40;99.90
51655;DHT22;37732;53.106;7.030;2024-02-21T15:37:34;9.50;99.90
51655;DHT22;37732;53.106;7.030;2024-02-21T15:40:00;9.50;99.90
51655;DHT22;37732;53.106;7.030;2024-02-21T15:42:26;9.40;99.90
51655;DHT22;37732;53.106;7.030;2024-02-21T15:44:52;9.40;99.90
51655;DHT22;37732;53.106;7.030;2024-02-21T15:47:18;9.40;99.90
51655;DHT22;37732;53.106;7.030;2024-02-21T15:49:49;9.40;99.90